Time;durP1;ratioP1;P1;durP2;ratioP2;P2;SDS_P1;SDS_P2;PMS_P1;PMS_P2;Temp;Humidity;BMP_temperature;BMP_pressure;BME280_temperature;BME280_humidity;BME280_pressure;Samples;Min_cycle;Max_cycle;Signal;HPM_P1;HPM_P2
2020/12/22 00:01:54;;;;;;;;;;;;;;;19.04;65.98;102271.16;5051714;28;1515;-49
2020/12/22 00:04:19;;;;;;;;;;;;;;;19.04;66.14;102287.25;5050465;28;1590;-50
2020/12/22 00:06:45;;;;;;;;;;;;;;;19.02;65.82;102275.75;5052205;28;1556;-49
2020/12/22 00:09:11;;;;;;;;;;;;;;;19.00;66.23;102279.47;5048259;28;1791;-49
2020/12/22 00:11:38;;;;;;;;;;;;;;;18.98;65.92;102284.97;5054876;28;1777;-49
2020/12/22 00:14:03;;;;;;;;;;;;;;;18.96;66.25;102265.44;5054942;28;1660;-50
2020/12/22 00:16:33;;;;;;;;;;;;;;;18.96;65.80;102277.94;5055600;28;1638;-50
2020/12/22 00:18:58;;;;;;;;;;;;;;;18.91;65.94;102275.56;5055102;28;1939;-50
2020/12/22 00:21:23;;;;;;;;;;;;;;;18.95;66.09;102290.50;5055481;28;1577;-49
2020/12/22 00:23:50;;;;;;;;;;;;;;;18.94;65.81;102280.75;5055538;28;1379;-49
2020/12/22 00:26:17;;;;;;;;;;;;;;;18.92;65.81;102285.34;5054842;28;1284;-50
2020/12/22 00:28:43;;;;;;;;;;;;;;;18.93;65.90;102295.09;5054418;28;1466;-50
2020/12/22 00:31:09;;;;;;;;;;;;;;;18.95;65.56;102290.50;5055517;28;1463;-49
2020/12/22 00:33:35;;;;;;;;;;;;;;;18.91;65.83;102299.69;5050156;28;1418;-49
2020/12/22 00:36:05;;;;;;;;;;;;;;;18.90;65.70;102292.63;5055509;28;1724;-50
2020/12/22 00:38:30;;;;;;;;;;;;;;;18.89;65.69;102293.56;5054368;28;1485;-50
2020/12/22 00:40:56;;;;;;;;;;;;;;;18.87;65.36;102292.81;5054844;28;1885;-49
2020/12/22 00:43:21;;;;;;;;;;;;;;;18.87;65.28;102295.50;5055236;28;1764;-49
2020/12/22 00:45:46;;;;;;;;;;;;;;;18.91;65.65;102315.78;5055365;28;1653;-49
2020/12/22 00:48:11;;;;;;;;;;;;;;;18.91;65.41;102302.38;5055172;28;1509;-49
2020/12/22 00:50:37;;;;;;;;;;;;;;;18.91;65.38;102307.75;5055217;28;1657;-50
2020/12/22 00:53:02;;;;;;;;;;;;;;;18.87;65.30;102299.03;5053830;28;1265;-49
2020/12/22 00:55:28;;;;;;;;;;;;;;;18.89;65.59;102304.28;5055095;28;1768;-50
2020/12/22 00:57:54;;;;;;;;;;;;;;;18.89;65.37;102298.94;5055615;28;1491;-50
2020/12/22 01:00:32;;;;;;;;;;;;;;;18.84;65.17;102307.28;5054680;28;1914;-50
2020/12/22 01:02:59;;;;;;;;;;;;;;;18.84;65.40;102301.03;5054917;28;1416;-50
2020/12/22 01:05:25;;;;;;;;;;;;;;;18.84;65.27;102287.63;5055192;28;1682;-50
2020/12/22 01:07:52;;;;;;;;;;;;;;;18.81;64.94;102288.69;5059000;28;1773;-50
2020/12/22 01:10:17;;;;;;;;;;;;;;;18.86;65.47;102304.47;5054465;28;1712;-50
2020/12/22 01:12:43;;;;;;;;;;;;;;;18.87;65.08;102307.06;5055153;28;785;-49
2020/12/22 01:15:08;;;;;;;;;;;;;;;18.87;65.02;102303.53;5053282;28;1651;-50
2020/12/22 01:17:34;;;;;;;;;;;;;;;18.90;65.47;102306.03;5054793;28;1526;-50
2020/12/22 01:20:07;;;;;;;;;;;;;;;18.89;65.40;102309.66;5054936;28;1957;-49
2020/12/22 01:22:32;;;;;;;;;;;;;;;18.87;65.03;102295.50;5054625;28;1651;-50
2020/12/22 01:24:59;;;;;;;;;;;;;;;18.88;64.96;102307.94;5054494;28;1707;-50
2020/12/22 01:27:26;;;;;;;;;;;;;;;18.84;64.89;102298.34;5054433;28;1705;-50
2020/12/22 01:29:51;;;;;;;;;;;;;;;18.85;64.97;102302.78;5054894;28;1758;-50
2020/12/22 01:32:16;;;;;;;;;;;;;;;18.82;64.96;102292.22;5054433;28;977;-50
2020/12/22 01:34:43;;;;;;;;;;;;;;;18.83;64.84;102313.59;5054591;28;1695;-50
2020/12/22 01:37:12;;;;;;;;;;;;;;;18.83;65.04;102299.31;5053964;28;1634;-50
2020/12/22 01:39:38;;;;;;;;;;;;;;;18.81;65.22;102293.19;5052771;28;1910;-50
2020/12/22 01:42:09;;;;;;;;;;;;;;;18.83;64.53;102302.00;5054518;28;853;-50
2020/12/22 01:44:34;;;;;;;;;;;;;;;18.82;65.13;102292.22;5052404;28;1557;-50
2020/12/22 01:47:00;;;;;;;;;;;;;;;18.84;64.99;102295.69;5052994;28;1716;-50
2020/12/22 01:49:27;;;;;;;;;;;;;;;18.82;64.63;102286.88;5054534;28;1710;-50
2020/12/22 01:51:54;;;;;;;;;;;;;;;18.80;64.69;102288.78;5051853;28;1761;-50
2020/12/22 01:54:20;;;;;;;;;;;;;;;18.76;64.55;102298.84;5054359;28;793;-50
2020/12/22 01:56:48;;;;;;;;;;;;;;;18.80;64.56;102292.34;5052856;28;1908;-50
2020/12/22 01:59:14;;;;;;;;;;;;;;;18.78;64.74;102293.34;5054087;28;1979;-50
2020/12/22 02:01:40;;;;;;;;;;;;;;;18.76;64.53;102292.59;5053865;28;953;-50
2020/12/22 02:04:06;;;;;;;;;;;;;;;18.81;64.55;102298.56;5052504;28;1811;-50
2020/12/22 02:06:34;;;;;;;;;;;;;;;18.77;64.69;102291.66;5052621;28;1718;-50
2020/12/22 02:09:00;;;;;;;;;;;;;;;18.75;64.96;102290.88;5052617;28;1746;-50
2020/12/22 02:11:26;;;;;;;;;;;;;;;18.73;64.79;102299.00;5053937;28;1535;-50
2020/12/22 02:13:51;;;;;;;;;;;;;;;18.75;64.79;102290.88;5052389;28;1737;-50
2020/12/22 02:16:19;;;;;;;;;;;;;;;18.73;64.49;102276.72;5052108;28;1493;-50
2020/12/22 02:18:45;;;;;;;;;;;;;;;18.71;64.57;102284.00;5052975;28;1885;-50
2020/12/22 02:21:10;;;;;;;;;;;;;;;18.76;64.96;102292.59;5053674;28;1477;-50
2020/12/22 02:23:36;;;;;;;;;;;;;;;18.78;64.92;102282.63;5053800;28;1684;-50
2020/12/22 02:26:02;;;;;;;;;;;;;;;18.80;64.85;102288.78;5047779;28;1717;-50
2020/12/22 02:28:27;;;;;;;;;;;;;;;18.79;64.95;102270.97;5053469;28;995;-50
2020/12/22 02:30:53;;;;;;;;;;;;;;;18.79;65.02;102268.28;5053664;28;1702;-50
2020/12/22 02:33:19;;;;;;;;;;;;;;;18.81;65.02;102286.00;5053656;28;1666;-50
2020/12/22 02:35:45;;;;;;;;;;;;;;;18.82;65.27;102260.06;5053458;28;1746;-50
2020/12/22 02:38:13;;;;;;;;;;;;;;;18.82;64.72;102268.09;5053620;28;1546;-50
2020/12/22 02:40:39;;;;;;;;;;;;;;;18.85;64.79;102281.31;5053209;28;1897;-50
2020/12/22 02:43:10;;;;;;;;;;;;;;;18.83;65.06;102278.75;5053018;28;1636;-51
2020/12/22 02:45:43;;;;;;;;;;;;;;;18.82;65.20;102281.50;5053363;28;1683;-50
2020/12/22 02:48:10;;;;;;;;;;;;;;;18.78;64.96;102263.88;5052540;28;1640;-50
2020/12/22 02:50:36;;;;;;;;;;;;;;;18.78;65.02;102274.59;5052054;28;1723;-50
2020/12/22 02:53:03;;;;;;;;;;;;;;;18.74;64.78;102265.03;5050685;28;1629;-50
2020/12/22 02:55:28;;;;;;;;;;;;;;;18.76;64.85;102255.06;5053432;28;1787;-50
2020/12/22 02:57:54;;;;;;;;;;;;;;;18.78;65.15;102271.91;5057741;28;1782;-50
2020/12/22 03:00:21;;;;;;;;;;;;;;;18.76;64.70;102282.75;5057497;28;1935;-50
2020/12/22 03:02:47;;;;;;;;;;;;;;;18.76;65.04;102277.38;5057703;28;1654;-50
2020/12/22 03:05:12;;;;;;;;;;;;;;;18.73;64.86;102258.81;5057518;28;1681;-50
2020/12/22 03:07:38;;;;;;;;;;;;;;;18.72;65.24;102264.25;5056109;28;1743;-50
2020/12/22 03:10:05;;;;;;;;;;;;;;;18.73;65.15;102266.00;5057262;28;1756;-50
2020/12/22 03:12:31;;;;;;;;;;;;;;;18.73;65.11;102271.34;5056084;28;1799;-50
2020/12/22 03:14:57;;;;;;;;;;;;;;;18.68;64.96;102255.56;5057396;28;971;-50
2020/12/22 03:17:22;;;;;;;;;;;;;;;18.68;65.16;102267.16;5057112;28;1080;-50
2020/12/22 03:19:48;;;;;;;;;;;;;;;18.71;64.82;102275.97;5056808;28;1906;-50
2020/12/22 03:22:14;;;;;;;;;;;;;;;18.71;65.49;102268.78;5056939;28;909;-50
2020/12/22 03:24:40;;;;;;;;;;;;;;;18.70;65.08;102267.03;5057275;28;1634;-50
2020/12/22 03:27:05;;;;;;;;;;;;;;;18.71;64.77;102260.72;5057128;28;1770;-50
2020/12/22 03:29:30;;;;;;;;;;;;;;;18.73;65.01;102258.81;5056573;28;1736;-50
2020/12/22 03:31:55;;;;;;;;;;;;;;;18.73;65.08;102260.63;5056774;28;1747;-50
2020/12/22 03:34:22;;;;;;;;;;;;;;;18.72;64.93;102261.59;5056868;28;1807;-50
2020/12/22 03:36:49;;;;;;;;;;;;;;;18.73;65.30;102258.81;5056922;28;1723;-50
2020/12/22 03:39:15;;;;;;;;;;;;;;;18.73;64.98;102257.97;5055340;28;1960;-50
2020/12/22 03:41:49;;;;;;;;;;;;;;;18.70;65.17;102245.59;5056918;28;1637;-50
2020/12/22 03:44:14;;;;;;;;;;;;;;;18.77;64.57;102259.50;5056415;28;1646;-50
2020/12/22 03:46:40;;;;;;;;;;;;;;;18.77;64.96;102254.13;5056363;28;1515;-50
2020/12/22 03:49:08;;;;;;;;;;;;;;;18.74;64.51;102251.63;5055218;28;1744;-50
2020/12/22 03:51:33;;;;;;;;;;;;;;;18.75;64.54;102254.22;5055459;28;1345;-50
2020/12/22 03:53:59;;;;;;;;;;;;;;;18.69;65.18;102258.13;5056133;28;1522;-50
2020/12/22 03:56:28;;;;;;;;;;;;;;;18.34;68.06;102268.38;5056691;28;1408;-50
2020/12/22 03:58:54;;;;;;;;;;;;;;;18.13;69.46;102273.25;5056120;28;1910;-50
2020/12/22 04:01:21;;;;;;;;;;;;;;;18.02;70.58;102278.38;5056058;28;1686;-50
2020/12/22 04:03:55;;;;;;;;;;;;;;;17.96;70.82;102270.72;5056139;28;1872;-50
2020/12/22 04:06:20;;;;;;;;;;;;;;;17.88;70.68;102257.78;5056248;28;1644;-50
2020/12/22 04:08:45;;;;;;;;;;;;;;;17.92;70.79;102263.81;5055734;28;1718;-50
2020/12/22 04:11:11;;;;;;;;;;;;;;;17.86;71.19;102260.53;5056387;28;1646;-50
2020/12/22 04:13:37;;;;;;;;;;;;;;;17.85;71.70;102266.88;5054707;28;1732;-50
2020/12/22 04:16:05;;;;;;;;;;;;;;;17.82;71.47;102258.97;5056317;28;790;-50
2020/12/22 04:18:31;;;;;;;;;;;;;;;17.80;71.92;102260.88;5055791;28;1606;-50
2020/12/22 04:20:57;;;;;;;;;;;;;;;17.83;72.64;102271.44;5054156;28;1943;-50
2020/12/22 04:23:25;;;;;;;;;;;;;;;17.83;72.86;102268.78;5054987;28;1286;-50
2020/12/22 04:25:52;;;;;;;;;;;;;;;17.81;71.91;102265.31;5054416;28;1711;-50
2020/12/22 04:28:18;;;;;;;;;;;;;;;17.84;71.97;102265.13;5054889;28;1816;-49
2020/12/22 04:30:49;;;;;;;;;;;;;;;17.86;72.27;102244.50;5055802;28;1668;-50
2020/12/22 04:33:16;;;;;;;;;;;;;;;17.80;72.37;102255.53;5055666;28;1648;-50
2020/12/22 04:35:41;;;;;;;;;;;;;;;17.78;72.53;102241.38;5055970;28;1495;-50
2020/12/22 04:38:07;;;;;;;;;;;;;;;17.81;71.84;102251.06;5055934;28;1723;-50
2020/12/22 04:40:33;;;;;;;;;;;;;;;17.88;72.24;102255.97;5055485;28;1894;-50
2020/12/22 04:42:59;;;;;;;;;;;;;;;17.82;73.26;102253.63;5055080;28;1745;-50
2020/12/22 04:45:40;;;;;;;;;;;;;;;17.94;73.21;102268.13;5054315;28;1666;-50
2020/12/22 04:48:05;;;;;;;;;;;;;;;17.91;73.66;102268.31;5054953;28;1710;-50
2020/12/22 04:50:33;;;;;;;;;;;;;;;17.87;73.38;102270.31;5054753;28;1374;-50
2020/12/22 04:52:58;;;;;;;;;;;;;;;17.78;72.27;102264.63;5053381;28;1490;-50
2020/12/22 04:55:23;;;;;;;;;;;;;;;17.76;72.86;102270.03;5054757;28;1308;-50
2020/12/22 04:57:50;;;;;;;;;;;;;;;17.77;73.07;102266.44;5053873;28;1401;-50
2020/12/22 05:00:16;;;;;;;;;;;;;;;17.73;72.90;102254.19;5055307;28;1913;-50
2020/12/22 05:02:42;;;;;;;;;;;;;;;17.75;73.42;102272.84;5074985;28;1848;-50
2020/12/22 05:05:08;;;;;;;;;;;;;;;17.74;72.84;102271.94;5062761;28;2014;-50
2020/12/22 05:07:33;;;;;;;;;;;;;;;17.69;73.49;102271.38;5054477;28;1657;-50
2020/12/22 05:10:04;;;;;;;;;;;;;;;17.70;73.16;102271.25;5054772;28;1718;-51
2020/12/22 05:12:29;;;;;;;;;;;;;;;17.76;73.45;102264.69;5054751;28;1717;-50
2020/12/22 05:14:55;;;;;;;;;;;;;;;17.86;72.10;102267.72;5055137;28;1710;-50
2020/12/22 05:17:20;;;;;;;;;;;;;;;17.79;73.21;102277.91;5054380;28;1810;-49
2020/12/22 05:19:46;;;;;;;;;;;;;;;17.74;73.59;102277.31;5053198;28;1890;-50
2020/12/22 05:22:12;;;;;;;;;;;;;;;17.69;73.64;102266.03;5054150;28;1277;-50
2020/12/22 05:24:37;;;;;;;;;;;;;;;17.71;73.68;102282.84;5053607;28;1363;-50
2020/12/22 05:27:04;;;;;;;;;;;;;;;17.65;72.93;102283.22;5054606;28;1670;-50
2020/12/22 05:29:32;;;;;;;;;;;;;;;17.67;72.68;102281.31;5053501;28;1474;-50
2020/12/22 05:31:57;;;;;;;;;;;;;;;17.67;72.51;102294.69;5054403;28;1631;-50
2020/12/22 05:34:26;;;;;;;;;;;;;;;17.65;73.64;102293.91;5053840;28;1711;-50
2020/12/22 05:36:51;;;;;;;;;;;;;;;17.61;73.46;102293.22;5054622;28;1725;-50
2020/12/22 05:39:17;;;;;;;;;;;;;;;17.62;72.74;102283.38;5054016;28;1890;-50
2020/12/22 05:41:43;;;;;;;;;;;;;;;17.61;73.89;102303.06;5054254;28;1515;-50
2020/12/22 05:44:08;;;;;;;;;;;;;;;17.59;73.34;102303.16;5053333;28;1667;-50
2020/12/22 05:46:35;;;;;;;;;;;;;;;17.61;73.13;102308.44;5053484;28;1566;-50
2020/12/22 05:49:00;;;;;;;;;;;;;;;17.60;73.44;102306.69;5053887;28;1758;-50
2020/12/22 05:51:27;;;;;;;;;;;;;;;17.60;73.48;102299.50;5053997;28;958;-50
2020/12/22 05:53:54;;;;;;;;;;;;;;;17.54;73.03;102280.28;5052916;28;1726;-49
2020/12/22 05:56:22;;;;;;;;;;;;;;;17.56;73.70;102294.44;5054206;28;1683;-50
2020/12/22 05:58:57;;;;;;;;;;;;;;;17.53;73.06;102287.47;5052933;28;1922;-50
2020/12/22 06:01:32;;;;;;;;;;;;;;;17.54;74.40;102281.16;5053794;28;1706;-50
2020/12/22 06:03:59;;;;;;;;;;;;;;;17.53;72.87;102284.78;5052811;28;1761;-50
2020/12/22 06:06:28;;;;;;;;;;;;;;;17.54;73.09;102282.97;5052832;28;1205;-50
2020/12/22 06:08:55;;;;;;;;;;;;;;;17.53;73.19;102270.53;5053582;28;1042;-50
2020/12/22 06:11:21;;;;;;;;;;;;;;;17.53;72.81;102274.09;5053767;28;1569;-49
2020/12/22 06:13:49;;;;;;;;;;;;;;;17.55;73.33;102272.19;5052172;28;1611;-50
2020/12/22 06:16:16;;;;;;;;;;;;;;;17.49;73.33;102265.38;5052223;28;1655;-50
2020/12/22 06:18:50;;;;;;;;;;;;;;;17.52;72.79;102266.16;5052162;28;1601;-50
2020/12/22 06:21:17;;;;;;;;;;;;;;;17.53;73.87;102267.84;5053582;28;1653;-50
2020/12/22 06:23:45;;;;;;;;;;;;;;;17.50;73.62;102275.09;5053379;28;1542;-50
2020/12/22 06:26:19;;;;;;;;;;;;;;;17.51;73.42;102281.34;5052285;28;1724;-50
2020/12/22 06:28:44;;;;;;;;;;;;;;;17.50;73.42;102269.75;5053808;28;1671;-50
2020/12/22 06:31:21;;;;;;;;;;;;;;;17.49;73.18;102262.69;5051899;28;1615;-50
2020/12/22 06:33:47;;;;;;;;;;;;;;;17.47;73.56;102258.41;5052110;28;1670;-50
2020/12/22 06:36:13;;;;;;;;;;;;;;;17.46;73.39;102262.88;5052312;28;1193;-50
2020/12/22 06:38:49;;;;;;;;;;;;;;;17.45;73.04;102274.53;5053620;28;821;-50
2020/12/22 06:41:41;;;;;;;;;;;;;;;17.46;73.17;102276.25;5053427;28;1725;-50
2020/12/22 06:44:17;;;;;;;;;;;;;;;17.45;73.04;102265.66;5053578;28;1678;-50
2020/12/22 06:46:45;;;;;;;;;;;;;;;17.48;73.07;102266.31;5053797;28;1684;-50
2020/12/22 06:49:10;;;;;;;;;;;;;;;17.58;73.22;102281.84;5051573;28;1739;-50
2020/12/22 06:51:38;;;;;;;;;;;;;;;17.58;73.50;102266.63;5052060;28;1785;-50
2020/12/22 06:54:04;;;;;;;;;;;;;;;17.57;73.42;102264.06;5052194;28;1685;-50
2020/12/22 06:56:42;;;;;;;;;;;;;;;17.55;72.83;102263.28;5053303;28;1644;-50
2020/12/22 06:59:19;;;;;;;;;;;;;;;17.53;72.93;102260.72;5053379;28;1903;-50
2020/12/22 07:01:45;;;;;;;;;;;;;;;17.53;73.64;102265.19;5085359;28;1574;-50
2020/12/22 07:04:13;;;;;;;;;;;;;;;17.45;73.35;102266.50;5052942;28;1474;-50
2020/12/22 07:06:52;;;;;;;;;;;;;;;17.42;73.37;102272.00;5053417;28;1620;-50
2020/12/22 07:09:23;;;;;;;;;;;;;;;17.44;73.59;102267.44;5052915;28;1441;-50
2020/12/22 07:11:58;;;;;;;;;;;;;;;17.45;72.82;102257.63;5052880;28;1531;-49
2020/12/22 07:14:25;;;;;;;;;;;;;;;17.43;72.72;102259.53;5053403;28;809;-50
2020/12/22 07:16:54;;;;;;;;;;;;;;;17.41;74.06;102256.09;5052266;28;1688;-50
2020/12/22 07:19:28;;;;;;;;;;;;;;;17.39;74.03;102261.50;5053204;28;1964;-50
2020/12/22 07:21:58;;;;;;;;;;;;;;;17.43;72.41;102263.06;5050827;28;1587;-49
2020/12/22 07:24:27;;;;;;;;;;;;;;;17.44;73.12;102266.59;5050916;28;1694;-50
2020/12/22 07:27:07;;;;;;;;;;;;;;;17.45;72.40;102276.34;5052945;28;1698;-50
2020/12/22 07:29:35;;;;;;;;;;;;;;;17.48;72.15;102258.28;5052689;28;2291;-49
2020/12/22 07:32:11;;;;;;;;;;;;;;;17.50;72.15;102255.53;5053677;28;1375;-49
2020/12/22 07:34:36;;;;;;;;;;;;;;;17.50;73.93;102253.72;5052369;28;1728;-50
2020/12/22 07:37:04;;;;;;;;;;;;;;;17.55;72.66;102255.25;5051461;28;1838;-49
2020/12/22 07:39:32;;;;;;;;;;;;;;;17.54;73.29;102258.91;5050135;28;1897;-50
2020/12/22 07:42:18;;;;;;;;;;;;;;;17.41;72.32;102264.97;5051422;28;1575;-49
2020/12/22 07:44:45;;;;;;;;;;;;;;;17.23;72.88;102261.53;5053321;28;1346;-49
2020/12/22 07:47:17;;;;;;;;;;;;;;;17.21;72.77;102252.75;5054997;28;1709;-49
2020/12/22 07:49:43;;;;;;;;;;;;;;;17.13;72.00;102262.13;5054386;28;1725;-50
2020/12/22 07:52:13;;;;;;;;;;;;;;;17.08;72.97;102260.56;5053814;28;1594;-49
2020/12/22 07:54:38;;;;;;;;;;;;;;;17.05;74.29;102260.75;5054626;28;1415;-49
2020/12/22 07:57:03;;;;;;;;;;;;;;;17.05;73.38;102267.91;5054876;28;1635;-49
2020/12/22 07:59:29;;;;;;;;;;;;;;;17.01;70.58;102256.53;5055921;28;1972;-49
2020/12/22 08:01:54;;;;;;;;;;;;;;;16.99;71.97;102258.44;5054321;28;1783;-49
2020/12/22 08:04:22;;;;;;;;;;;;;;;17.19;72.76;102265.34;5055947;28;1390;-49
2020/12/22 08:07:00;;;;;;;;;;;;;;;17.26;71.50;102263.16;5055701;28;1659;-48
2020/12/22 08:09:27;;;;;;;;;;;;;;;17.32;71.29;102270.81;5053987;28;1599;-50
2020/12/22 08:11:53;;;;;;;;;;;;;;;17.44;70.19;102275.47;5055926;28;1720;-49
2020/12/22 08:14:18;;;;;;;;;;;;;;;17.52;70.78;102271.50;5055372;28;1862;-50
2020/12/22 08:16:44;;;;;;;;;;;;;;;17.57;70.70;102269.44;5055167;28;1926;-48
2020/12/22 08:19:10;;;;;;;;;;;;;;;17.64;70.53;102273.44;5055435;28;1898;-49
2020/12/22 08:21:36;;;;;;;;;;;;;;;17.66;71.81;102253.69;5055469;28;1789;-49
2020/12/22 08:24:02;;;;;;;;;;;;;;;17.72;70.45;102265.84;5051392;28;1897;-49
2020/12/22 08:26:28;;;;;;;;;;;;;;;17.47;69.99;102264.59;5084627;28;1655;-49
2020/12/22 08:28:58;;;;;;;;;;;;;;;17.53;70.45;102263.38;5053838;28;1885;-50
2020/12/22 08:31:26;;;;;;;;;;;;;;;17.54;69.63;102243.69;5055641;28;1623;-49
2020/12/22 08:33:52;;;;;;;;;;;;;;;17.55;70.02;102252.56;5052219;28;1813;-48
2020/12/22 08:36:26;;;;;;;;;;;;;;;17.69;70.48;102255.34;5045986;28;12114;-49
2020/12/22 08:38:51;;;;;;;;;;;;;;;17.71;70.34;102245.41;5050633;28;1897;-49
2020/12/22 08:41:18;;;;;;;;;;;;;;;17.74;70.42;102266.59;5052953;28;1535;-49
2020/12/22 08:43:49;;;;;;;;;;;;;;;17.80;70.36;102254.69;5052889;28;1898;-47
2020/12/22 08:46:22;;;;;;;;;;;;;;;18.05;69.81;102259.47;5052584;28;1662;-50
2020/12/22 08:48:54;;;;;;;;;;;;;;;18.19;70.04;102256.81;5052771;28;1605;-48
2020/12/22 08:51:26;;;;;;;;;;;;;;;18.26;69.46;102247.44;5052389;28;1582;-49
2020/12/22 08:53:53;;;;;;;;;;;;;;;18.31;69.93;102238.28;5049999;28;1664;-48
2020/12/22 08:56:24;;;;;;;;;;;;;;;18.32;69.47;102235.47;5052533;28;1715;-48
2020/12/22 08:58:56;;;;;;;;;;;;;;;18.32;69.08;102221.22;5054930;28;1848;-49
2020/12/22 09:01:29;;;;;;;;;;;;;;;18.39;69.62;102226.09;5044035;28;1821;-48
2020/12/22 09:03:57;;;;;;;;;;;;;;;18.38;69.69;102235.13;5053073;28;1722;-47
2020/12/22 09:06:52;;;;;;;;;;;;;;;18.48;70.17;102238.94;5054315;28;1590;-48
2020/12/22 09:09:33;;;;;;;;;;;;;;;18.56;69.74;102213.47;4959959;28;1613;-49
2020/12/22 09:12:04;;;;;;;;;;;;;;;18.48;69.33;102217.50;5053809;28;1447;-49
2020/12/22 09:14:37;;;;;;;;;;;;;;;18.61;69.68;102214.03;5052316;28;1416;-48
2020/12/22 09:17:05;;;;;;;;;;;;;;;18.88;68.50;102212.31;5048764;28;1727;-47
2020/12/22 09:19:42;;;;;;;;;;;;;;;18.94;68.20;102211.06;5050752;28;1955;-49
2020/12/22 09:22:07;;;;;;;;;;;;;;;19.14;67.19;102209.75;5054358;28;1888;-49
2020/12/22 09:24:34;;;;;;;;;;;;;;;19.23;66.98;102221.69;5053005;28;1570;-47
2020/12/22 09:27:01;;;;;;;;;;;;;;;19.30;66.50;102223.00;5054677;28;1654;-49
2020/12/22 09:29:30;;;;;;;;;;;;;;;19.07;64.66;102201.22;5053491;28;1865;-48
2020/12/22 09:31:56;;;;;;;;;;;;;;;19.26;66.01;102205.41;5054143;28;1437;-47
2020/12/22 09:34:22;;;;;;;;;;;;;;;19.18;66.15;102205.91;5050699;28;1651;-48
2020/12/22 09:36:51;;;;;;;;;;;;;;;19.12;67.38;102206.31;5053173;28;1547;-47
2020/12/22 09:39:16;;;;;;;;;;;;;;;19.10;67.90;102204.66;5052446;28;1893;-49
2020/12/22 09:41:42;;;;;;;;;;;;;;;18.95;68.43;102196.69;5053060;28;1823;-48
2020/12/22 09:44:08;;;;;;;;;;;;;;;18.92;67.89;102204.94;5052773;28;1906;-48
2020/12/22 09:46:33;;;;;;;;;;;;;;;19.01;67.93;102198.94;5052075;28;1933;-48
2020/12/22 09:48:58;;;;;;;;;;;;;;;19.00;68.40;102194.56;5051455;28;1650;-49
2020/12/22 09:51:23;;;;;;;;;;;;;;;18.94;69.08;102194.97;5053246;28;1937;-48
2020/12/22 09:53:50;;;;;;;;;;;;;;;18.93;68.63;102187.88;5052394;28;2080;-48
2020/12/22 09:56:15;;;;;;;;;;;;;;;18.87;69.79;102193.63;5053635;28;1851;-48
2020/12/22 09:58:41;;;;;;;;;;;;;;;18.82;69.94;102201.09;5053184;28;1570;-48
2020/12/22 10:01:06;;;;;;;;;;;;;;;18.80;70.02;102189.63;5052483;28;1997;-48
2020/12/22 10:03:31;;;;;;;;;;;;;;;18.79;69.90;102188.78;5052222;28;1902;-48
2020/12/22 10:05:56;;;;;;;;;;;;;;;18.81;70.18;102189.53;5052640;28;1743;-48
2020/12/22 10:08:21;;;;;;;;;;;;;;;18.79;70.07;102188.78;5052699;28;1708;-48
2020/12/22 10:10:47;;;;;;;;;;;;;;;18.76;69.49;102188.06;5052886;28;1687;-48
2020/12/22 10:13:12;;;;;;;;;;;;;;;18.92;69.21;102180.81;5053181;28;2318;-48
2020/12/22 10:15:37;;;;;;;;;;;;;;;18.88;69.71;102174.78;5051853;28;1860;-48
2020/12/22 10:18:09;;;;;;;;;;;;;;;18.87;69.59;102162.31;5053626;28;1548;-48
2020/12/22 10:20:34;;;;;;;;;;;;;;;18.86;69.38;102165.09;5052248;28;1878;-48
2020/12/22 10:23:00;;;;;;;;;;;;;;;18.89;69.27;102170.28;5053158;28;1578;-48
2020/12/22 10:25:26;;;;;;;;;;;;;;;18.86;69.85;102167.78;5051688;28;1473;-49
2020/12/22 10:27:51;;;;;;;;;;;;;;;18.94;68.72;102160.13;5052082;28;1557;-47
2020/12/22 10:30:16;;;;;;;;;;;;;;;19.06;68.53;102174.53;5051427;28;1658;-48
2020/12/22 10:32:42;;;;;;;;;;;;;;;19.02;68.86;102165.84;5051316;28;1471;-48
2020/12/22 10:35:08;;;;;;;;;;;;;;;18.98;68.78;102163.44;5052014;28;1627;-49
2020/12/22 10:37:33;;;;;;;;;;;;;;;18.93;69.50;102149.50;5051725;28;1672;-50
2020/12/22 10:39:58;;;;;;;;;;;;;;;18.35;69.02;102146.06;5051141;28;1973;-50
2020/12/22 10:42:23;;;;;;;;;;;;;;;18.80;68.93;102153.00;5051841;28;1607;-48
2020/12/22 10:44:49;;;;;;;;;;;;;;;18.89;68.61;102143.47;5052907;28;1848;-48
2020/12/22 10:47:14;;;;;;;;;;;;;;;19.00;68.76;102156.16;5053214;28;1510;-48
2020/12/22 10:49:39;;;;;;;;;;;;;;;18.91;68.73;102125.47;5051538;28;1772;-49
2020/12/22 10:52:04;;;;;;;;;;;;;;;18.90;68.96;102129.13;5051926;28;1829;-48
2020/12/22 10:54:30;;;;;;;;;;;;;;;18.82;70.21;102136.78;5052557;28;1761;-48
2020/12/22 10:56:56;;;;;;;;;;;;;;;18.86;69.96;102132.94;5052776;28;1948;-48
2020/12/22 10:59:21;;;;;;;;;;;;;;;18.84;69.79;102124.13;5042187;28;1906;-49
2020/12/22 11:01:49;;;;;;;;;;;;;;;18.85;69.28;102126.72;5045661;28;1632;-49
2020/12/22 11:04:14;;;;;;;;;;;;;;;19.00;68.99;102126.66;5050646;28;1529;-48
2020/12/22 11:09:46;;;;;;;;;;;;;;;18.91;69.75;102108.53;5068557;28;1750;-48
2020/12/22 11:12:12;;;;;;;;;;;;;;;18.97;69.74;102111.66;5070653;28;1690;-48
2020/12/22 11:14:43;;;;;;;;;;;;;;;18.99;69.86;102114.25;5057382;28;1841;-48
2020/12/22 11:17:09;;;;;;;;;;;;;;;18.96;70.03;102106.38;5051643;28;1425;-49
2020/12/22 11:19:36;;;;;;;;;;;;;;;18.95;70.85;102113.56;5056726;28;1899;-48
2020/12/22 11:22:02;;;;;;;;;;;;;;;18.92;70.93;102116.47;5056909;28;1287;-49
2020/12/22 11:24:30;;;;;;;;;;;;;;;19.01;70.04;102107.78;5053824;28;1408;-49
2020/12/22 11:26:56;;;;;;;;;;;;;;;19.06;69.97;102112.88;5052493;28;1781;-48
2020/12/22 11:29:21;;;;;;;;;;;;;;;18.95;70.55;102110.91;5056323;28;1724;-48
2020/12/22 11:31:50;;;;;;;;;;;;;;;18.93;70.94;102110.13;5055329;28;1768;-48
2020/12/22 11:34:18;;;;;;;;;;;;;;;18.85;71.33;102094.56;5046116;28;2831;-48
2020/12/22 11:36:48;;;;;;;;;;;;;;;18.83;71.62;102104.53;5052715;28;1449;-49
2020/12/22 11:39:13;;;;;;;;;;;;;;;18.81;71.86;102102.91;5049149;28;1906;-49
2020/12/22 11:41:38;;;;;;;;;;;;;;;18.84;71.92;102100.03;5054730;28;1526;-48
2020/12/22 11:44:04;;;;;;;;;;;;;;;18.85;71.90;102099.06;4352361;28;10000781;-50
2020/12/22 11:46:29;;;;;;;;;;;;;;;18.85;71.01;102101.75;5032977;28;2542;-49
2020/12/22 11:48:54;;;;;;;;;;;;;;;18.80;71.80;102095.81;5037341;28;1722;-49
2020/12/22 11:51:20;;;;;;;;;;;;;;;18.82;71.62;102100.16;5045879;28;1694;-49
2020/12/22 11:53:45;;;;;;;;;;;;;;;18.79;71.44;102099.44;5039666;28;1705;-49
2020/12/22 11:56:10;;;;;;;;;;;;;;;18.81;71.49;102098.41;5037957;28;1858;-49
2020/12/22 11:58:35;;;;;;;;;;;;;;;18.80;71.81;102101.19;5033988;28;1760;-49
2020/12/22 12:01:01;;;;;;;;;;;;;;;18.76;71.40;102084.44;5036824;28;1912;-50
2020/12/22 12:03:26;;;;;;;;;;;;;;;18.81;71.48;102100.25;5039872;28;1830;-49
2020/12/22 12:05:51;;;;;;;;;;;;;;;18.77;71.65;102094.19;5035268;28;1879;-49
2020/12/22 12:08:17;;;;;;;;;;;;;;;18.79;71.35;102094.09;5036835;28;1732;-48
2020/12/22 12:10:42;;;;;;;;;;;;;;;18.77;71.31;102085.28;5036606;28;1799;-48
2020/12/22 12:13:07;;;;;;;;;;;;;;;18.78;71.22;102087.00;5037928;28;1849;-49
2020/12/22 12:15:33;;;;;;;;;;;;;;;18.79;71.23;102084.25;5034730;28;1967;-50
2020/12/22 12:17:58;;;;;;;;;;;;;;;18.86;70.35;102079.34;5043905;28;1709;-48
2020/12/22 12:20:24;;;;;;;;;;;;;;;18.91;70.09;102087.94;5048555;28;1885;-49
2020/12/22 12:22:49;;;;;;;;;;;;;;;18.87;70.41;102081.91;5044772;28;1725;-49
2020/12/22 12:25:14;;;;;;;;;;;;;;;18.84;70.86;102087.50;5049553;28;1745;-49
2020/12/22 12:27:40;;;;;;;;;;;;;;;18.86;70.82;102082.00;5047517;28;1719;-48
2020/12/22 12:30:05;;;;;;;;;;;;;;;18.85;71.05;102066.91;5046950;28;1781;-48
2020/12/22 12:32:30;;;;;;;;;;;;;;;18.85;71.10;102062.41;5050607;28;1815;-49
2020/12/22 12:34:59;;;;;;;;;;;;;;;18.83;70.95;102064.31;5054908;28;2040;-49
2020/12/22 12:37:24;;;;;;;;;;;;;;;18.83;70.88;102058.97;5048011;28;2084;-48
2020/12/22 12:39:50;;;;;;;;;;;;;;;18.81;70.70;102057.34;5048941;28;1894;-49
2020/12/22 12:42:15;;;;;;;;;;;;;;;18.80;70.55;102052.94;5051173;28;1763;-49
2020/12/22 12:44:40;;;;;;;;;;;;;;;18.80;70.77;102045.78;5053669;28;2235;-49
2020/12/22 12:47:06;;;;;;;;;;;;;;;18.77;70.15;102037.06;5046635;28;1596;-48
2020/12/22 12:49:31;;;;;;;;;;;;;;;18.79;70.63;102045.84;5050804;28;1648;-50
2020/12/22 12:51:56;;;;;;;;;;;;;;;18.79;70.51;102040.50;5048042;28;1898;-49